createdAt,value
2023-03-06T00:01:05.692Z,55.01
2023-03-06T00:03:36.234Z,55.32
2023-03-06T00:06:06.217Z,54.82
2023-03-06T00:08:36.575Z,55.35
2023-03-06T00:11:06.164Z,56.29
2023-03-06T00:13:35.927Z,55.21
2023-03-06T00:16:07.547Z,55.77
2023-03-06T00:18:37.517Z,56.42
2023-03-06T00:21:09.181Z,56.53
2023-03-06T00:23:38.316Z,56.64
2023-03-06T00:26:09.617Z,56.03
2023-03-06T00:28:45.368Z,56.27
2023-03-06T00:31:15.897Z,55.96
2023-03-06T00:33:45.967Z,55.79
2023-03-06T00:36:15.666Z,55.54
2023-03-06T00:38:44.809Z,55.38
2023-03-06T00:41:14.368Z,55.72
2023-03-06T00:43:43.495Z,55.17
2023-03-06T00:46:13.629Z,54.44
2023-03-06T00:48:44.540Z,54.45
2023-03-06T00:51:14.728Z,52.93
2023-03-06T00:53:46.774Z,52.68
2023-03-06T00:56:18.923Z,53.36
2023-03-06T00:58:50.215Z,54.49
2023-03-06T01:01:20.832Z,54.57
2023-03-06T01:03:49.883Z,54.65
2023-03-06T01:06:20.201Z,54.55
2023-03-06T01:08:50.225Z,55.36
2023-03-06T01:11:21.591Z,54.38
2023-03-06T01:13:52.280Z,54.24
2023-03-06T01:16:23.625Z,54.11
2023-03-06T01:18:52.792Z,54.02
2023-03-06T01:21:22.457Z,54.05
2023-03-06T01:23:52.818Z,54.19
2023-03-06T01:26:21.974Z,53.85
2023-03-06T01:28:52.162Z,53.96
2023-03-06T01:31:21.998Z,54.15
2023-03-06T01:33:51.149Z,54.37
2023-03-06T01:36:20.550Z,54.59
2023-03-06T01:38:50.098Z,54.49
2023-03-06T01:41:21.525Z,54.44
2023-03-06T01:43:51.296Z,54.61
2023-03-06T01:46:42.711Z,54.84
2023-03-06T01:49:31.155Z,55.01
2023-03-06T01:52:15.031Z,54.98
2023-03-06T01:55:00.187Z,55.12
2023-03-06T01:57:41.756Z,55.38
2023-03-06T02:00:16.938Z,55.11
2023-03-06T02:02:53.266Z,55.69
2023-03-06T02:05:24.066Z,55.68
2023-03-06T02:07:55.068Z,55.69
2023-03-06T02:10:25.773Z,55.80
2023-03-06T02:12:55.028Z,55.51
2023-03-06T02:15:28.018Z,55.59
2023-03-06T02:18:00.628Z,55.74
2023-03-06T02:20:37.736Z,55.90
2023-03-06T02:23:17.428Z,55.87
2023-03-06T02:25:50.376Z,56.18
2023-03-06T02:28:24.299Z,55.72
2023-03-06T02:30:57.153Z,55.55
2023-03-06T02:33:29.790Z,55.63
2023-03-06T02:36:01.978Z,55.61
2023-03-06T02:38:41.307Z,56.02
2023-03-06T02:41:10.887Z,55.99
2023-03-06T02:43:45.650Z,56.34
2023-03-06T02:46:16.184Z,56.54
2023-03-06T02:48:46.395Z,56.45
2023-03-06T02:51:15.724Z,56.57
2023-03-06T02:53:45.974Z,56.68
2023-03-06T02:56:16.573Z,57.06
2023-03-06T02:58:46.935Z,57.11
2023-03-06T03:01:16.762Z,58.20
2023-03-06T03:03:45.878Z,57.54
2023-03-06T03:06:17.054Z,58.28
2023-03-06T03:08:49.032Z,58.77
2023-03-06T03:11:18.777Z,58.96
2023-03-06T03:13:48.839Z,59.68
2023-03-06T03:16:24.202Z,59.76
2023-03-06T03:18:53.294Z,59.29
2023-03-06T03:21:24.909Z,59.57
2023-03-06T03:23:56.523Z,60.06
2023-03-06T03:26:27.544Z,61.23
2023-03-06T03:29:14.003Z,61.61
2023-03-06T03:31:43.510Z,62.27
2023-03-06T03:34:13.044Z,61.44
2023-03-06T03:36:43.954Z,61.13
2023-03-06T03:39:14.763Z,62.13
2023-03-06T03:41:44.739Z,61.55
2023-03-06T03:44:14.651Z,61.67
2023-03-06T03:46:45.230Z,61.96
2023-03-06T03:49:19.398Z,62.31
2023-03-06T03:51:49.735Z,61.86
2023-03-06T03:54:21.733Z,62.67
2023-03-06T03:56:52.088Z,62.52
2023-03-06T03:59:26.863Z,62.99
2023-03-06T04:02:17.594Z,63.34
2023-03-06T04:04:54.195Z,64.24
2023-03-06T04:07:23.483Z,63.43
2023-03-06T04:09:56.017Z,64.53
2023-03-06T04:12:26.238Z,64.57
2023-03-06T04:14:55.748Z,63.99
2023-03-06T04:17:24.902Z,62.91
2023-03-06T04:19:56.173Z,64.42
2023-03-06T04:22:25.872Z,65.06
2023-03-06T04:24:56.656Z,66.00
2023-03-06T04:27:29.921Z,64.43
2023-03-06T04:30:00.359Z,66.05
2023-03-06T04:32:29.798Z,64.95
2023-03-06T04:34:59.530Z,65.27
2023-03-06T04:37:31.479Z,64.80
2023-03-06T04:40:01.742Z,65.12
2023-03-06T04:42:32.167Z,65.59
2023-03-06T04:45:02.495Z,65.53
2023-03-06T04:47:33.306Z,66.06
2023-03-06T04:50:30.577Z,66.41
2023-03-06T04:52:57.697Z,66.21
2023-03-06T04:55:31.016Z,65.97
2023-03-06T04:58:00.884Z,65.79
2023-03-06T05:00:33.772Z,65.95
2023-03-06T05:03:03.960Z,65.81
2023-03-06T05:05:34.085Z,65.94
2023-03-06T05:08:04.012Z,66.61
2023-03-06T05:10:34.005Z,67.16
2023-03-06T05:13:03.585Z,66.94
2023-03-06T05:15:32.742Z,67.27
2023-03-06T05:18:02.508Z,66.48
2023-03-06T05:20:32.572Z,65.74
2023-03-06T05:23:01.783Z,65.71
2023-03-06T05:25:30.939Z,66.24
2023-03-06T05:28:00.099Z,66.55
2023-03-06T05:30:29.881Z,66.98
2023-03-06T05:33:02.180Z,66.45
2023-03-06T05:35:32.207Z,66.83
2023-03-06T05:38:02.186Z,66.22
2023-03-06T05:40:31.618Z,67.08
2023-03-06T05:43:01.694Z,66.90
2023-03-06T05:45:32.510Z,66.85
2023-03-06T05:48:01.853Z,66.51
2023-03-06T05:50:32.524Z,66.88
2023-03-06T05:53:01.948Z,66.48
2023-03-06T05:55:31.851Z,67.43
2023-03-06T05:58:00.922Z,67.50
2023-03-06T06:00:30.249Z,67.51
2023-03-06T06:03:02.712Z,67.51
2023-03-06T06:05:32.225Z,68.11
2023-03-06T06:08:01.399Z,68.15
2023-03-06T06:10:30.589Z,66.97
2023-03-06T06:12:59.591Z,67.98
2023-03-06T06:15:29.352Z,66.84
2023-03-06T06:17:59.034Z,67.25
2023-03-06T06:20:29.321Z,68.38
2023-03-06T06:22:59.371Z,67.70
2023-03-06T06:25:28.374Z,68.38
2023-03-06T06:27:58.400Z,68.00
2023-03-06T06:30:27.551Z,68.13
2023-03-06T06:32:57.441Z,68.49
2023-03-06T06:35:27.700Z,68.61
2023-03-06T06:37:56.828Z,68.16
2023-03-06T06:40:28.186Z,68.26
2023-03-06T06:42:58.023Z,68.35
2023-03-06T06:45:27.586Z,68.39
2023-03-06T06:47:57.901Z,67.87
2023-03-06T06:50:27.767Z,68.05
2023-03-06T06:52:57.029Z,68.08
2023-03-06T06:55:27.576Z,67.88
2023-03-06T06:57:56.687Z,67.53
2023-03-06T07:00:26.842Z,67.28
2023-03-06T07:02:56.484Z,66.76
2023-03-06T07:05:26.745Z,66.32
2023-03-06T07:07:56.355Z,65.61
2023-03-06T07:10:28.698Z,64.90
2023-03-06T07:12:58.497Z,64.10
2023-03-06T07:15:30.226Z,63.88
2023-03-06T07:18:01.740Z,63.38
2023-03-06T07:20:32.298Z,61.54
2023-03-06T07:23:02.464Z,59.69
2023-03-06T07:25:33.157Z,59.98
2023-03-06T07:28:03.610Z,59.17
2023-03-06T07:30:32.953Z,58.70
2023-03-06T07:33:02.204Z,58.01
2023-03-06T07:35:31.870Z,58.07
2023-03-06T07:38:02.192Z,56.94
2023-03-06T07:40:31.545Z,56.92
2023-03-06T07:43:16.815Z,56.34
2023-03-06T07:46:00.699Z,55.83
2023-03-06T07:48:31.778Z,55.04
2023-03-06T07:51:04.793Z,54.75
2023-03-06T07:53:37.361Z,53.95
2023-03-06T07:56:11.650Z,52.41
2023-03-06T07:58:44.408Z,51.97
2023-03-06T08:01:16.966Z,50.77
2023-03-06T08:03:47.708Z,50.65
2023-03-06T08:06:30.195Z,50.53
2023-03-06T08:09:00.118Z,49.83
2023-03-06T08:11:31.307Z,50.16
2023-03-06T08:14:01.641Z,49.16
2023-03-06T08:16:32.288Z,49.46
2023-03-06T08:19:04.497Z,49.23
2023-03-06T08:21:33.926Z,48.55
2023-03-06T08:24:03.987Z,49.09
2023-03-06T08:26:33.733Z,47.67
2023-03-06T08:29:03.328Z,48.48
2023-03-06T08:31:45.248Z,47.31
2023-03-06T08:34:20.335Z,47.62
2023-03-06T08:36:51.144Z,46.34
2023-03-06T08:39:21.745Z,45.67
2023-03-06T08:41:51.804Z,45.29
2023-03-06T08:44:21.474Z,43.60
2023-03-06T08:46:53.642Z,44.20
2023-03-06T08:49:23.681Z,44.67
2023-03-06T08:51:55.279Z,44.61
2023-03-06T08:54:25.221Z,44.81
2023-03-06T08:56:55.281Z,41.95
2023-03-06T08:59:28.277Z,42.86
2023-03-06T09:01:57.410Z,43.02
2023-03-06T09:04:31.750Z,42.55
2023-03-06T09:07:01.746Z,42.82
2023-03-06T09:09:31.419Z,41.79
2023-03-06T09:12:01.029Z,41.28
2023-03-06T09:14:33.107Z,40.08
2023-03-06T09:17:02.753Z,39.39
2023-03-06T09:19:31.917Z,39.87
2023-03-06T09:22:01.656Z,39.15
2023-03-06T09:24:31.428Z,39.75
2023-03-06T09:27:03.144Z,38.52
2023-03-06T09:29:33.221Z,38.04
2023-03-06T09:32:02.531Z,37.55
2023-03-06T09:34:32.332Z,37.62
2023-03-06T09:37:05.237Z,37.70
2023-03-06T09:39:35.292Z,36.70
2023-03-06T09:42:08.477Z,35.97
2023-03-06T09:44:41.531Z,35.51
2023-03-06T09:47:40.068Z,33.64
2023-03-06T09:50:27.706Z,33.19
2023-03-06T09:53:04.797Z,33.27
2023-03-06T09:55:38.646Z,33.66
2023-03-06T09:58:26.333Z,34.69
2023-03-06T10:01:17.660Z,33.78
2023-03-06T10:03:59.101Z,32.89
2023-03-06T10:06:40.497Z,32.97
2023-03-06T10:09:34.405Z,32.77
2023-03-06T10:12:14.423Z,33.68
2023-03-06T10:14:49.243Z,33.48
2023-03-06T10:17:23.166Z,33.51
2023-03-06T10:19:53.252Z,33.38
2023-03-06T10:22:40.291Z,33.05
2023-03-06T10:25:31.426Z,33.48
2023-03-06T10:28:12.096Z,32.96
2023-03-06T10:30:43.270Z,33.73
2023-03-06T10:33:39.564Z,33.18
2023-03-06T10:36:18.465Z,32.79
2023-03-06T10:38:49.221Z,34.15
2023-03-06T10:41:25.618Z,34.45
2023-03-06T10:44:00.800Z,32.97
2023-03-06T10:46:36.975Z,31.64
2023-03-06T10:49:23.125Z,32.26
2023-03-06T10:52:14.614Z,32.43
2023-03-06T10:54:45.249Z,33.14
2023-03-06T10:57:30.513Z,33.01
2023-03-06T11:00:17.679Z,32.45
2023-03-06T11:03:04.817Z,33.41
2023-03-06T11:05:34.968Z,33.05
2023-03-06T11:08:04.379Z,32.37
2023-03-06T11:10:35.883Z,30.75
2023-03-06T11:13:22.850Z,31.30
2023-03-06T11:16:03.711Z,30.86
2023-03-06T11:18:43.406Z,30.42
2023-03-06T11:21:36.292Z,30.65
2023-03-06T11:24:20.455Z,31.03
2023-03-06T11:27:03.895Z,30.90
2023-03-06T11:29:44.920Z,30.97
2023-03-06T11:32:23.199Z,30.27
2023-03-06T11:34:59.553Z,30.40
2023-03-06T11:37:47.852Z,31.08
2023-03-06T11:40:23.666Z,31.03
2023-03-06T11:43:30.674Z,31.34
2023-03-06T11:46:23.336Z,31.10
2023-03-06T11:49:19.050Z,29.99
2023-03-06T11:51:55.873Z,29.93
2023-03-06T11:54:25.436Z,29.94
2023-03-06T11:57:05.679Z,29.72
2023-03-06T12:00:18.864Z,29.21
2023-03-06T12:03:20.706Z,29.38
2023-03-06T12:06:01.957Z,29.12
2023-03-06T12:08:31.884Z,29.43
2023-03-06T12:11:21.548Z,29.19
2023-03-06T12:14:16.498Z,29.85
2023-03-06T12:17:07.373Z,30.55
2023-03-06T12:20:05.480Z,29.93
2023-03-06T12:22:58.227Z,29.24
2023-03-06T12:25:40.685Z,29.83
2023-03-06T12:28:38.127Z,29.64
2023-03-06T12:31:19.874Z,29.91
2023-03-06T12:34:23.741Z,29.90
2023-03-06T12:37:12.924Z,29.30
2023-03-06T12:39:58.506Z,28.40
2023-03-06T12:43:06.584Z,28.15
2023-03-06T12:49:02.794Z,28.18
2023-03-06T12:51:33.540Z,29.19
2023-03-06T12:54:04.954Z,29.31
2023-03-06T12:56:36.604Z,29.39
2023-03-06T12:59:06.376Z,29.33
2023-03-06T13:01:58.233Z,28.88
2023-03-06T13:04:51.770Z,29.25
2023-03-06T13:07:33.611Z,28.63
2023-03-06T13:10:06.445Z,28.75
2023-03-06T13:13:01.139Z,28.50
2023-03-06T13:16:05.428Z,28.51
2023-03-06T13:18:35.483Z,28.68
2023-03-06T13:21:05.534Z,28.82
2023-03-06T13:23:39.325Z,29.35
2023-03-06T13:26:10.973Z,29.60
2023-03-06T13:28:46.719Z,27.93
2023-03-06T13:31:40.591Z,28.05
2023-03-06T13:34:32.060Z,28.74
2023-03-06T13:37:24.006Z,28.59
2023-03-06T13:39:53.055Z,28.24
2023-03-06T13:42:40.256Z,27.83
2023-03-06T13:45:19.779Z,28.64
2023-03-06T13:48:21.124Z,29.20
2023-03-06T13:50:50.852Z,29.65
2023-03-06T13:53:53.773Z,29.69
2023-03-06T13:56:38.377Z,30.52
2023-03-06T13:59:14.224Z,29.73
2023-03-06T14:01:53.873Z,29.91
2023-03-06T14:04:55.452Z,30.50
2023-03-06T14:07:44.205Z,30.18
2023-03-06T14:10:20.639Z,29.92
2023-03-06T14:12:49.776Z,29.54
2023-03-06T14:15:24.865Z,29.23
2023-03-06T14:18:08.297Z,28.80
2023-03-06T14:20:45.150Z,29.45
2023-03-06T14:23:21.583Z,29.13
2023-03-06T14:26:23.820Z,29.40
2023-03-06T14:28:52.969Z,29.44
2023-03-06T14:31:38.801Z,29.66
2023-03-06T14:34:17.303Z,29.79
2023-03-06T14:36:49.139Z,29.76
2023-03-06T14:39:21.667Z,30.43
2023-03-06T14:41:51.144Z,30.52
2023-03-06T14:44:22.336Z,30.95
2023-03-06T14:46:55.695Z,31.24
2023-03-06T14:49:27.014Z,31.59
2023-03-06T14:52:02.311Z,31.70
2023-03-06T14:54:39.773Z,32.04
2023-03-06T14:57:15.817Z,32.50
2023-03-06T14:59:55.366Z,33.27
2023-03-06T15:02:33.203Z,33.08
2023-03-06T15:05:14.003Z,32.34
2023-03-06T15:07:45.194Z,32.97
2023-03-06T15:10:27.304Z,32.97
2023-03-06T15:13:23.076Z,33.42
2023-03-06T15:16:05.667Z,33.62
2023-03-06T15:18:39.526Z,33.92
2023-03-06T15:21:21.994Z,34.13
2023-03-06T15:23:57.315Z,34.24
2023-03-06T15:26:37.242Z,34.66
2023-03-06T15:29:11.049Z,35.28
2023-03-06T15:31:46.619Z,35.63
2023-03-06T15:34:23.909Z,35.60
2023-03-06T15:36:58.223Z,35.60
2023-03-06T15:39:42.105Z,36.04
2023-03-06T15:42:37.531Z,36.29
2023-03-06T15:45:20.013Z,36.79
2023-03-06T15:47:52.445Z,37.12
2023-03-06T15:50:22.638Z,37.29
2023-03-06T15:52:53.216Z,37.75
2023-03-06T15:55:34.413Z,37.77
2023-03-06T15:58:05.137Z,37.78
2023-03-06T16:00:38.790Z,37.74
2023-03-06T16:03:11.577Z,38.00
2023-03-06T16:05:41.464Z,38.69
2023-03-06T16:08:16.084Z,38.79
2023-03-06T16:10:47.294Z,38.99
2023-03-06T16:13:23.155Z,39.33
2023-03-06T16:15:53.414Z,39.19
2023-03-06T16:18:23.018Z,39.65
2023-03-06T16:20:52.269Z,39.78
2023-03-06T16:23:22.504Z,39.60
2023-03-06T16:25:53.199Z,39.92
2023-03-06T16:28:22.525Z,40.12
2023-03-06T16:30:52.948Z,40.34
2023-03-06T16:33:22.506Z,41.05
2023-03-06T16:35:51.977Z,41.24
2023-03-06T16:38:21.792Z,40.85
2023-03-06T16:40:51.087Z,40.87
2023-03-06T16:43:20.322Z,41.68
2023-03-06T16:45:49.534Z,41.85
2023-03-06T16:48:18.877Z,42.05
2023-03-06T16:50:49.460Z,43.10
2023-03-06T16:53:20.935Z,42.47
2023-03-06T16:55:50.972Z,43.48
2023-03-06T16:58:21.912Z,44.21
2023-03-06T17:00:51.237Z,44.55
2023-03-06T17:03:21.023Z,44.84
2023-03-06T17:05:51.144Z,44.48
2023-03-06T17:08:20.906Z,45.15
2023-03-06T17:10:51.178Z,46.52
2023-03-06T17:13:20.797Z,46.12
2023-03-06T17:15:57.424Z,45.89
2023-03-06T17:18:28.419Z,45.55
2023-03-06T17:21:02.677Z,46.42
2023-03-06T17:23:32.442Z,46.66
2023-03-06T17:26:09.226Z,47.05
2023-03-06T17:28:39.995Z,46.90
2023-03-06T17:31:27.261Z,46.94
2023-03-06T17:34:01.016Z,47.13
2023-03-06T17:36:34.518Z,47.81
2023-03-06T17:39:26.681Z,48.66
2023-03-06T17:42:12.603Z,47.32
2023-03-06T17:44:45.114Z,48.34
2023-03-06T17:47:36.248Z,48.76
2023-03-06T17:50:06.270Z,48.35
2023-03-06T17:52:58.543Z,49.78
2023-03-06T17:55:39.516Z,49.08
2023-03-06T17:58:18.280Z,49.57
2023-03-06T18:00:47.614Z,50.02
2023-03-06T18:03:17.208Z,50.72
2023-03-06T18:06:08.673Z,50.42
2023-03-06T18:08:41.549Z,50.83
2023-03-06T18:11:12.171Z,51.68
2023-03-06T18:13:44.848Z,51.65
2023-03-06T18:16:17.739Z,51.10
2023-03-06T18:18:48.158Z,51.37
2023-03-06T18:21:18.233Z,50.58
2023-03-06T18:23:47.681Z,50.84
2023-03-06T18:26:19.331Z,50.79
2023-03-06T18:28:52.782Z,51.77
2023-03-06T18:31:29.296Z,52.15
2023-03-06T18:34:01.003Z,52.33
2023-03-06T18:36:33.547Z,52.52
2023-03-06T18:39:07.658Z,52.89
2023-03-06T18:41:38.603Z,52.67
2023-03-06T18:44:13.826Z,53.76
2023-03-06T18:46:44.119Z,52.97
2023-03-06T18:49:15.732Z,53.72
2023-03-06T18:51:47.765Z,53.31
2023-03-06T18:54:17.106Z,53.19
2023-03-06T18:56:46.769Z,53.01
2023-03-06T18:59:18.942Z,54.03
2023-03-06T19:01:49.101Z,53.79
2023-03-06T19:04:19.839Z,54.16
2023-03-06T19:06:48.821Z,53.54
2023-03-06T19:09:19.096Z,53.50
2023-03-06T19:11:49.532Z,54.57
2023-03-06T19:14:25.905Z,54.11
2023-03-06T19:16:55.457Z,53.66
2023-03-06T19:19:29.763Z,54.23
2023-03-06T19:21:59.492Z,53.79
2023-03-06T19:24:29.966Z,54.78
2023-03-06T19:26:59.240Z,55.29
2023-03-06T19:29:31.250Z,55.39
2023-03-06T19:32:01.558Z,55.90
2023-03-06T19:34:32.088Z,55.61
2023-03-06T19:37:02.580Z,56.15
2023-03-06T19:39:35.954Z,56.98
2023-03-06T19:42:07.346Z,55.61
2023-03-06T19:44:41.361Z,55.41
2023-03-06T19:50:15.433Z,54.33
2023-03-06T19:52:45.467Z,54.85
2023-03-06T19:55:15.165Z,54.72
2023-03-06T19:57:46.143Z,55.40
2023-03-06T20:00:16.572Z,54.75
2023-03-06T20:02:45.881Z,55.12
2023-03-06T20:05:16.788Z,55.53
2023-03-06T20:07:46.904Z,55.92
2023-03-06T20:10:17.522Z,55.29
2023-03-06T20:12:50.997Z,55.28
2023-03-06T20:15:22.757Z,55.82
2023-03-06T20:17:52.698Z,55.72
2023-03-06T20:20:22.850Z,55.07
2023-03-06T20:22:52.918Z,55.54
2023-03-06T20:25:25.311Z,55.33
2023-03-06T20:27:54.468Z,55.92
2023-03-06T20:30:24.314Z,56.66
2023-03-06T20:32:58.969Z,57.02
2023-03-06T20:35:28.355Z,56.85
2023-03-06T20:37:58.521Z,56.65
2023-03-06T20:40:31.433Z,56.80
2023-03-06T20:43:00.983Z,56.67
2023-03-06T20:45:31.081Z,56.15
2023-03-06T20:48:07.855Z,57.03
2023-03-06T20:50:37.671Z,56.94
2023-03-06T20:53:07.396Z,57.47
2023-03-06T20:55:40.067Z,57.25
2023-03-06T20:58:16.150Z,57.24
2023-03-06T21:00:46.857Z,57.83
2023-03-06T21:03:18.605Z,57.96
2023-03-06T21:05:54.530Z,59.21
2023-03-06T21:08:24.407Z,59.08
2023-03-06T21:10:55.388Z,58.49
2023-03-06T21:13:25.080Z,58.92
2023-03-06T21:15:54.850Z,59.44
2023-03-06T21:18:26.219Z,58.94
2023-03-06T21:21:06.425Z,59.22
2023-03-06T21:23:39.924Z,59.20
2023-03-06T21:26:13.437Z,60.47
2023-03-06T21:28:54.808Z,59.93
2023-03-06T21:31:24.383Z,60.71
2023-03-06T21:33:54.634Z,59.75
2023-03-06T21:36:27.565Z,59.76
2023-03-06T21:38:57.059Z,59.74
2023-03-06T21:41:29.166Z,59.14
2023-03-06T21:44:02.541Z,58.86
2023-03-06T21:46:33.120Z,59.23
2023-03-06T21:49:04.592Z,59.73
2023-03-06T21:51:34.708Z,60.06
2023-03-06T21:54:10.194Z,60.69
2023-03-06T21:56:41.959Z,61.58
2023-03-06T21:59:13.362Z,61.71
2023-03-06T22:01:43.735Z,63.11
2023-03-06T22:04:16.518Z,61.78
2023-03-06T22:06:48.667Z,62.52
2023-03-06T22:09:20.401Z,61.72
2023-03-06T22:11:50.430Z,61.47
2023-03-06T22:14:20.901Z,60.82
2023-03-06T22:16:51.779Z,62.07
2023-03-06T22:19:21.644Z,61.81
2023-03-06T22:21:51.607Z,62.61
2023-03-06T22:24:20.958Z,61.80
2023-03-06T22:26:51.035Z,62.28
2023-03-06T22:29:21.355Z,61.97
2023-03-06T22:31:52.555Z,61.93
2023-03-06T22:34:28.189Z,61.87
2023-03-06T22:37:00.362Z,61.91
2023-03-06T22:39:32.289Z,61.35
2023-03-06T22:42:01.433Z,61.34
2023-03-06T22:44:31.549Z,61.07
2023-03-06T22:47:03.142Z,60.90
2023-03-06T22:49:33.558Z,60.34
2023-03-06T22:52:03.672Z,60.84
2023-03-06T22:54:33.418Z,60.55
2023-03-06T22:57:05.068Z,60.61
2023-03-06T22:59:34.160Z,60.19
2023-03-06T23:02:04.301Z,60.09
2023-03-06T23:04:33.340Z,60.36
2023-03-06T23:07:02.519Z,59.93
2023-03-06T23:09:33.535Z,60.04
2023-03-06T23:12:21.894Z,60.17
2023-03-06T23:15:10.606Z,59.60
2023-03-06T23:18:00.104Z,59.74
2023-03-06T23:20:47.619Z,59.71
2023-03-06T23:23:37.888Z,59.88
2023-03-06T23:26:08.633Z,59.35
2023-03-06T23:28:38.176Z,59.70
2023-03-06T23:31:14.187Z,59.68
2023-03-06T23:33:45.352Z,59.57
2023-03-06T23:36:18.283Z,59.80
2023-03-06T23:38:49.195Z,60.02
2023-03-06T23:41:21.376Z,60.33
2023-03-06T23:43:54.932Z,61.33
2023-03-06T23:46:24.608Z,66.68
2023-03-06T23:48:55.459Z,68.92
2023-03-06T23:51:24.698Z,72.02
2023-03-06T23:53:57.347Z,72.54
2023-03-06T23:56:28.872Z,73.42
2023-03-06T23:58:59.504Z,74.54
